Time;durP1;ratioP1;P1;durP2;ratioP2;P2;SDS_P1;SDS_P2;PMS_P1;PMS_P2;Temp;Humidity;BMP_temperature;BMP_pressure;BME280_temperature;BME280_humidity;BME280_pressure;Samples;Min_cycle;Max_cycle;Signal;HPM_P1;HPM_P2
2021/07/29 00:00:38;;;;;;;6.07;3.60;;;17.80;90.00;;;;;;4992483;28;20190;-74
2021/07/29 00:03:04;;;;;;;7.33;4.43;;;17.80;90.30;;;;;;4991983;28;20905;-73
2021/07/29 00:05:32;;;;;;;7.23;4.20;;;17.70;90.20;;;;;;4991508;28;21001;-73
2021/07/29 00:07:57;;;;;;;5.87;4.00;;;17.70;90.20;;;;;;4986952;28;20473;-73
2021/07/29 00:10:25;;;;;;;8.17;4.13;;;17.70;90.40;;;;;;4991616;28;20927;-74
2021/07/29 00:12:51;;;;;;;5.73;3.73;;;17.70;90.40;;;;;;4991715;28;20565;-73
2021/07/29 00:15:17;;;;;;;6.07;4.20;;;17.70;90.50;;;;;;4987097;28;20508;-73
2021/07/29 00:20:13;;;;;;;8.13;4.17;;;17.60;90.90;;;;;;4990414;28;20830;-73
2021/07/29 00:22:40;;;;;;;7.13;4.57;;;17.60;90.80;;;;;;4990530;28;20429;-74
2021/07/29 00:25:10;;;;;;;6.80;4.10;;;17.60;90.60;;;;;;4991796;28;20506;-73
2021/07/29 00:27:36;;;;;;;6.77;3.83;;;17.50;90.80;;;;;;4991613;28;20904;-74
2021/07/29 00:30:06;;;;;;;5.53;3.70;;;17.50;90.80;;;;;;4991969;28;20461;-74
2021/07/29 00:32:32;;;;;;;6.70;4.43;;;17.40;90.90;;;;;;4987699;28;20183;-74
2021/07/29 00:34:58;;;;;;;6.40;3.90;;;17.40;90.90;;;;;;4988236;28;20563;-75
2021/07/29 00:37:24;;;;;;;7.20;3.80;;;17.40;91.10;;;;;;4989524;28;20540;-75
2021/07/29 00:39:50;;;;;;;8.00;3.80;;;17.40;91.10;;;;;;4990395;28;20182;-75
2021/07/29 00:42:15;;;;;;;5.23;3.33;;;17.40;91.10;;;;;;4988945;28;20668;-75
2021/07/29 00:44:41;;;;;;;6.50;3.90;;;17.30;91.20;;;;;;4982578;28;20191;-75
2021/07/29 00:47:07;;;;;;;5.43;3.73;;;17.30;91.30;;;;;;4985361;28;20679;-75
2021/07/29 00:49:33;;;;;;;6.67;4.20;;;17.30;91.00;;;;;;4988272;28;20194;-74
2021/07/29 00:52:00;;;;;;;5.10;3.33;;;17.30;90.80;;;;;;4990288;28;21273;-75
2021/07/29 00:54:29;;;;;;;6.20;3.70;;;17.30;90.60;;;;;;4986182;28;20978;-74
2021/07/29 00:56:57;;;;;;;9.37;4.03;;;17.30;90.30;;;;;;4980573;28;20548;-75
2021/07/29 00:59:23;;;;;;;6.40;4.00;;;17.40;90.20;;;;;;4985159;28;20433;-74
2021/07/29 01:01:49;;;;;;;11.30;3.93;;;17.40;89.60;;;;;;4987244;28;20772;-75
2021/07/29 01:04:15;;;;;;;9.93;3.90;;;17.40;89.70;;;;;;4982493;28;20767;-75
2021/07/29 01:06:41;;;;;;;7.60;4.33;;;17.40;90.00;;;;;;4987360;28;20229;-75
2021/07/29 01:09:09;;;;;;;5.53;3.60;;;17.30;90.20;;;;;;4988480;28;20616;-75
2021/07/29 01:11:43;;;;;;;5.57;3.80;;;17.30;90.50;;;;;;4985500;28;20270;-74
2021/07/29 01:14:10;;;;;;;5.17;3.53;;;17.30;90.60;;;;;;4987193;28;20475;-73
2021/07/29 01:16:36;;;;;;;10.20;4.47;;;17.20;90.80;;;;;;4981516;28;20433;-75
2021/07/29 01:19:03;;;;;;;5.50;4.07;;;17.20;91.00;;;;;;4985456;28;20528;-74
2021/07/29 01:21:30;;;;;;;9.23;4.07;;;17.10;91.20;;;;;;4985048;28;20433;-76
2021/07/29 01:23:56;;;;;;;7.60;4.20;;;17.10;91.40;;;;;;4987296;28;20433;-74
2021/07/29 01:26:23;;;;;;;6.97;4.00;;;17.10;91.40;;;;;;4982133;28;20453;-75
2021/07/29 01:28:49;;;;;;;6.30;4.03;;;17.10;91.40;;;;;;4984704;28;20443;-74
2021/07/29 01:31:16;;;;;;;6.10;4.43;;;17.00;91.50;;;;;;4978260;28;20438;-75
2021/07/29 01:33:42;;;;;;;8.70;3.93;;;17.10;91.50;;;;;;4984639;28;20466;-74
2021/07/29 01:36:08;;;;;;;6.70;4.07;;;17.00;91.80;;;;;;4989095;28;20428;-74
2021/07/29 01:38:34;;;;;;;8.87;4.17;;;17.00;91.80;;;;;;4990302;28;20453;-75
2021/07/29 01:41:02;;;;;;;7.57;3.80;;;16.90;91.90;;;;;;4990569;28;20432;-75
2021/07/29 01:43:28;;;;;;;7.80;4.10;;;16.90;92.10;;;;;;4990481;28;20457;-74
2021/07/29 01:45:54;;;;;;;6.10;3.70;;;16.80;92.30;;;;;;4990614;28;20460;-75
2021/07/29 01:48:20;;;;;;;8.10;4.10;;;16.80;92.40;;;;;;4990636;28;20895;-75
2021/07/29 01:50:46;;;;;;;9.43;4.43;;;16.80;92.50;;;;;;4987068;28;20204;-75
2021/07/29 01:53:12;;;;;;;6.83;3.83;;;16.80;92.40;;;;;;4990772;28;20237;-75
2021/07/29 01:55:42;;;;;;;8.50;3.97;;;16.80;92.40;;;;;;4990315;28;20187;-75
2021/07/29 01:58:08;;;;;;;7.20;3.57;;;16.80;92.30;;;;;;4990630;28;20220;-74
2021/07/29 02:00:34;;;;;;;9.80;3.77;;;16.80;92.30;;;;;;4989311;28;20961;-74
2021/07/29 02:03:02;;;;;;;6.17;4.10;;;16.80;92.40;;;;;;4986245;28;20541;-73
2021/07/29 02:05:27;;;;;;;12.13;4.57;;;16.80;92.50;;;;;;4987275;28;20191;-75
2021/07/29 02:07:53;;;;;;;6.30;3.77;;;16.80;92.60;;;;;;4985076;28;20441;-75
2021/07/29 02:10:19;;;;;;;7.17;4.10;;;16.80;92.60;;;;;;4989771;28;20651;-74
2021/07/29 02:12:44;;;;;;;7.60;4.27;;;16.80;92.70;;;;;;4982172;28;20537;-75
2021/07/29 02:15:10;;;;;;;6.00;4.10;;;16.70;92.70;;;;;;4990395;28;20183;-72
2021/07/29 02:17:36;;;;;;;10.67;4.50;;;16.70;93.00;;;;;;4994486;28;20239;-75
2021/07/29 02:20:02;;;;;;;7.50;4.13;;;16.70;93.00;;;;;;4993409;28;20926;-74
2021/07/29 02:22:27;;;;;;;10.53;4.23;;;16.70;92.80;;;;;;4993615;28;20181;-75
2021/07/29 02:24:53;;;;;;;7.77;4.70;;;16.70;93.00;;;;;;4983766;28;20186;-74
2021/07/29 02:27:19;;;;;;;9.40;4.50;;;16.70;93.00;;;;;;4989890;28;20206;-75
2021/07/29 02:29:44;;;;;;;6.70;4.40;;;16.70;93.10;;;;;;4985205;28;20194;-75
2021/07/29 02:32:10;;;;;;;6.73;4.57;;;16.70;93.10;;;;;;4988548;28;20197;-75
2021/07/29 02:34:36;;;;;;;7.60;4.13;;;16.60;93.10;;;;;;4986951;28;20204;-74
2021/07/29 02:37:02;;;;;;;10.03;4.27;;;16.60;93.20;;;;;;4990523;28;20730;-75
2021/07/29 02:39:28;;;;;;;6.10;4.13;;;16.60;93.30;;;;;;4994336;28;20183;-75
2021/07/29 02:41:53;;;;;;;10.60;5.00;;;16.50;93.40;;;;;;4994784;28;20490;-75
2021/07/29 02:44:19;;;;;;;7.00;3.80;;;16.50;93.40;;;;;;4986198;28;20197;-75
2021/07/29 02:46:45;;;;;;;7.13;4.47;;;16.50;93.40;;;;;;4994055;28;20730;-76
2021/07/29 02:49:10;;;;;;;8.77;4.63;;;16.50;93.60;;;;;;4989021;28;20223;-74
2021/07/29 02:51:36;;;;;;;7.13;4.00;;;16.50;93.60;;;;;;4993712;28;20187;-74
2021/07/29 02:54:02;;;;;;;10.27;4.63;;;16.50;93.70;;;;;;4993650;28;20206;-74
2021/07/29 02:56:27;;;;;;;7.90;4.40;;;16.50;93.70;;;;;;4993491;28;20229;-74
2021/07/29 02:58:53;;;;;;;6.10;4.03;;;16.40;93.70;;;;;;4985936;28;20187;-74
2021/07/29 03:01:19;;;;;;;9.40;4.00;;;16.50;93.80;;;;;;4992018;28;20722;-75
2021/07/29 03:03:49;;;;;;;7.90;4.47;;;16.50;93.60;;;;;;4992522;28;20298;-76
2021/07/29 03:06:15;;;;;;;7.13;4.60;;;16.50;93.60;;;;;;4993393;28;20274;-74
2021/07/29 03:08:41;;;;;;;7.73;4.57;;;16.50;93.60;;;;;;4986315;28;20488;-74
2021/07/29 03:11:09;;;;;;;7.53;4.63;;;16.50;93.40;;;;;;4991839;28;20561;-75
2021/07/29 03:13:35;;;;;;;8.03;4.67;;;16.60;93.40;;;;;;4993289;28;20249;-74
2021/07/29 03:16:01;;;;;;;7.80;4.77;;;16.60;93.20;;;;;;4993329;28;20453;-73
2021/07/29 03:18:26;;;;;;;10.03;4.70;;;16.60;93.20;;;;;;4993211;28;20208;-74
2021/07/29 03:20:52;;;;;;;10.10;4.63;;;16.60;93.20;;;;;;4991784;28;20189;-74
2021/07/29 03:23:18;;;;;;;8.30;4.93;;;16.60;93.20;;;;;;4990783;28;20190;-74
2021/07/29 03:25:50;;;;;;;6.93;4.40;;;16.50;93.30;;;;;;4985152;28;20189;-74
2021/07/29 03:28:17;;;;;;;9.33;5.20;;;16.50;93.50;;;;;;4984382;28;20218;-75
2021/07/29 03:30:43;;;;;;;9.13;5.47;;;16.50;93.30;;;;;;4991036;28;20461;-74
2021/07/29 03:33:10;;;;;;;8.43;5.03;;;16.60;93.10;;;;;;4983917;28;20470;-74
2021/07/29 03:35:38;;;;;;;6.83;4.40;;;16.50;93.10;;;;;;4989395;28;20443;-74
2021/07/29 03:38:06;;;;;;;7.43;4.77;;;16.50;93.20;;;;;;4989687;28;20963;-74
2021/07/29 03:40:32;;;;;;;8.93;4.60;;;16.60;93.00;;;;;;4993013;28;20939;-75
2021/07/29 03:43:01;;;;;;;11.30;5.67;;;16.60;92.90;;;;;;4992702;28;20496;-74
2021/07/29 03:45:28;;;;;;;10.23;6.03;;;16.60;92.90;;;;;;4991418;28;20429;-74
2021/07/29 03:47:54;;;;;;;9.40;5.33;;;16.60;92.70;;;;;;4987593;28;21029;-74
2021/07/29 03:50:20;;;;;;;9.40;5.80;;;16.60;92.70;;;;;;4988730;28;20454;-76
2021/07/29 03:52:45;;;;;;;8.43;5.27;;;16.60;92.70;;;;;;4985233;28;20828;-74
2021/07/29 03:55:11;;;;;;;7.33;5.17;;;16.60;92.60;;;;;;4986265;28;20191;-75
2021/07/29 03:57:37;;;;;;;8.93;4.93;;;16.60;92.70;;;;;;4986052;28;20707;-75
2021/07/29 04:00:04;;;;;;;9.40;5.50;;;16.50;92.50;;;;;;4991609;28;20442;-74
2021/07/29 04:02:30;;;;;;;10.70;4.77;;;16.50;92.60;;;;;;4980717;28;20193;-75
2021/07/29 04:04:56;;;;;;;11.87;5.53;;;16.60;92.40;;;;;;4990885;28;20427;-75
2021/07/29 04:07:22;;;;;;;10.33;5.20;;;16.60;92.20;;;;;;4991546;28;20453;-76
2021/07/29 04:09:48;;;;;;;8.13;5.00;;;16.70;92.10;;;;;;4991358;28;21050;-75
2021/07/29 04:12:14;;;;;;;7.47;4.50;;;16.70;92.00;;;;;;4983944;28;20238;-76
2021/07/29 04:14:40;;;;;;;7.80;4.93;;;16.70;91.90;;;;;;4994505;28;20474;-75
2021/07/29 04:17:06;;;;;;;9.50;5.03;;;16.70;91.80;;;;;;4983511;28;20211;-75
2021/07/29 04:19:33;;;;;;;9.20;4.77;;;16.70;91.80;;;;;;4988641;28;20430;-75
2021/07/29 04:21:59;;;;;;;9.33;4.83;;;16.60;91.90;;;;;;4985932;28;20434;-75
2021/07/29 04:24:28;;;;;;;6.73;4.77;;;16.70;91.90;;;;;;4985241;28;20480;-77
2021/07/29 04:26:54;;;;;;;8.63;4.93;;;16.60;91.90;;;;;;4987075;28;20540;-74
2021/07/29 04:29:20;;;;;;;9.70;4.47;;;16.60;92.00;;;;;;4986453;28;20506;-74
2021/07/29 04:31:46;;;;;;;11.30;5.40;;;16.70;91.90;;;;;;4991177;28;20942;-74
2021/07/29 04:34:11;;;;;;;12.67;6.10;;;16.70;91.80;;;;;;4993483;28;20245;-75
2021/07/29 04:36:41;;;;;;;8.73;4.87;;;16.80;91.50;;;;;;4992547;28;20184;-75
2021/07/29 04:39:08;;;;;;;13.37;5.63;;;16.70;91.40;;;;;;4990627;28;20182;-75
2021/07/29 04:41:41;;;;;;;16.83;5.40;;;16.80;91.40;;;;;;4994101;28;20424;-75
2021/07/29 04:44:08;;;;;;;7.80;4.50;;;16.80;91.20;;;;;;4992829;28;20429;-74
2021/07/29 04:46:39;;;;;;;10.43;5.17;;;16.90;91.20;;;;;;4993709;28;20426;-75
2021/07/29 04:49:07;;;;;;;7.43;4.60;;;16.90;91.00;;;;;;4994904;28;20425;-75
2021/07/29 04:51:34;;;;;;;7.90;5.07;;;16.90;91.00;;;;;;4994390;28;20753;-73
2021/07/29 04:54:00;;;;;;;10.23;5.23;;;17.00;90.80;;;;;;4981008;28;20832;-76
2021/07/29 04:56:26;;;;;;;8.40;5.10;;;17.00;90.80;;;;;;4993306;28;20414;-76
2021/07/29 04:58:52;;;;;;;7.80;4.57;;;17.00;90.60;;;;;;4992446;28;20190;-74
2021/07/29 05:01:19;;;;;;;9.97;5.30;;;17.00;90.60;;;;;;4992591;28;20424;-78
2021/07/29 05:03:46;;;;;;;8.30;4.47;;;17.00;90.60;;;;;;5004679;28;20183;-75
2021/07/29 05:06:12;;;;;;;9.67;5.40;;;17.10;90.60;;;;;;5004951;28;20426;-75
2021/07/29 05:08:38;;;;;;;7.93;4.77;;;17.10;90.50;;;;;;4994450;28;20438;-75
2021/07/29 05:11:04;;;;;;;9.03;4.90;;;17.10;90.30;;;;;;4993614;28;20501;-77
2021/07/29 05:13:31;;;;;;;12.10;4.70;;;17.20;90.20;;;;;;4992775;28;20493;-74
2021/07/29 05:15:58;;;;;;;10.60;4.97;;;17.20;89.90;;;;;;4991875;28;21035;-75
2021/07/29 05:18:24;;;;;;;6.57;4.80;;;17.20;89.90;;;;;;4989093;28;20442;-74
2021/07/29 05:20:50;;;;;;;7.07;4.30;;;17.30;89.90;;;;;;4990746;28;20508;-75
2021/07/29 05:23:16;;;;;;;7.60;4.60;;;17.40;89.50;;;;;;4985917;28;20560;-77
2021/07/29 05:25:42;;;;;;;8.13;5.03;;;17.40;89.50;;;;;;4983302;28;20261;-75
2021/07/29 05:28:08;;;;;;;8.83;5.17;;;17.50;88.90;;;;;;4985502;28;20254;-75
2021/07/29 05:30:37;;;;;;;7.00;4.27;;;17.60;88.40;;;;;;4990149;28;20219;-75
2021/07/29 05:33:04;;;;;;;7.67;4.63;;;17.70;87.80;;;;;;4986065;28;20460;-75
2021/07/29 05:35:31;;;;;;;9.17;5.03;;;17.80;87.60;;;;;;4989897;28;20425;-74
2021/07/29 05:37:57;;;;;;;7.30;4.13;;;17.90;87.10;;;;;;4983707;28;20480;-74
2021/07/29 05:40:23;;;;;;;6.80;4.80;;;17.90;87.00;;;;;;4990373;28;20453;-75
2021/07/29 05:42:48;;;;;;;9.00;4.77;;;18.00;86.90;;;;;;4990704;28;20183;-75
2021/07/29 05:45:14;;;;;;;9.53;4.80;;;18.10;86.80;;;;;;4990022;28;20212;-76
2021/07/29 05:47:40;;;;;;;8.33;5.10;;;18.10;86.90;;;;;;4989516;28;20285;-74
2021/07/29 05:50:06;;;;;;;5.43;3.90;;;18.10;87.00;;;;;;4986165;28;20188;-75
2021/07/29 05:52:31;;;;;;;6.57;4.17;;;18.20;86.60;;;;;;4980148;28;20574;-74
2021/07/29 05:54:57;;;;;;;7.00;4.10;;;18.40;86.00;;;;;;4988871;28;20669;-74
2021/07/29 05:57:23;;;;;;;7.30;4.57;;;18.50;85.70;;;;;;4990649;28;20216;-74
2021/07/29 05:59:49;;;;;;;6.47;4.50;;;18.60;85.60;;;;;;4991229;28;20725;-74
2021/07/29 06:02:14;;;;;;;7.40;3.93;;;18.70;84.70;;;;;;4990526;28;20729;-74
2021/07/29 06:04:40;;;;;;;9.10;4.37;;;18.70;85.00;;;;;;4990582;28;20563;-74
2021/07/29 06:07:07;;;;;;;8.60;5.27;;;18.80;84.70;;;;;;4988838;28;20223;-75
2021/07/29 06:09:33;;;;;;;5.83;3.97;;;19.00;84.30;;;;;;4989152;28;20793;-75
2021/07/29 06:11:58;;;;;;;7.30;4.43;;;19.10;84.00;;;;;;4985267;28;20191;-74
2021/07/29 06:14:24;;;;;;;9.00;4.13;;;19.20;83.60;;;;;;4990196;28;20271;-74
2021/07/29 06:16:50;;;;;;;7.33;3.90;;;19.20;83.60;;;;;;4990158;28;20621;-74
2021/07/29 06:21:42;;;;;;;5.13;3.40;;;19.50;81.20;;;;;;4990153;28;20544;-73
2021/07/29 06:24:08;;;;;;;5.10;3.70;;;19.50;80.60;;;;;;4989739;28;20186;-76
2021/07/29 06:26:33;;;;;;;7.20;3.90;;;19.60;80.50;;;;;;4978598;28;20483;-74
2021/07/29 06:28:59;;;;;;;4.87;3.40;;;19.70;80.20;;;;;;4984304;28;20194;-74
2021/07/29 06:31:26;;;;;;;5.40;3.53;;;19.80;79.60;;;;;;4989470;28;20212;-73
2021/07/29 06:33:51;;;;;;;4.87;3.23;;;19.90;78.90;;;;;;4990106;28;20468;-73
2021/07/29 06:36:17;;;;;;;6.37;3.70;;;20.00;78.90;;;;;;4990420;28;20457;-74
2021/07/29 06:38:43;;;;;;;5.30;3.30;;;20.10;78.90;;;;;;4988608;28;20257;-75
2021/07/29 06:41:09;;;;;;;4.60;3.60;;;20.10;78.10;;;;;;4989794;28;20900;-74
2021/07/29 06:43:36;;;;;;;6.17;3.97;;;20.20;78.70;;;;;;4989954;28;20190;-74
2021/07/29 06:46:05;;;;;;;9.83;4.60;;;20.20;78.10;;;;;;4989950;28;20249;-74
2021/07/29 06:48:31;;;;;;;4.80;3.23;;;20.30;77.60;;;;;;4989045;28;20511;-73
2021/07/29 06:51:02;;;;;;;4.43;3.23;;;20.30;76.80;;;;;;4989937;28;20426;-74
2021/07/29 06:53:27;;;;;;;7.03;3.60;;;20.30;76.80;;;;;;4990005;28;20485;-74
2021/07/29 06:55:53;;;;;;;5.63;3.20;;;20.30;76.10;;;;;;4989112;28;20875;-74
2021/07/29 06:58:21;;;;;;;6.50;4.07;;;20.30;75.20;;;;;;4989848;28;20222;-73
2021/07/29 07:00:47;;;;;;;4.67;3.50;;;20.30;76.10;;;;;;4984225;28;20187;-74
2021/07/29 07:03:13;;;;;;;6.20;3.50;;;20.30;75.90;;;;;;4993503;28;20418;-73
2021/07/29 07:05:44;;;;;;;5.60;3.87;;;20.30;75.70;;;;;;4993422;28;20421;-73
2021/07/29 07:08:11;;;;;;;6.10;3.80;;;20.40;74.90;;;;;;4993525;28;20202;-75
2021/07/29 07:10:36;;;;;;;6.10;3.53;;;20.40;75.10;;;;;;4992348;28;20893;-75
2021/07/29 07:13:02;;;;;;;6.13;3.60;;;20.50;75.40;;;;;;4993882;28;20490;-74
2021/07/29 07:15:28;;;;;;;5.50;3.23;;;20.50;74.20;;;;;;4993114;28;20196;-74
2021/07/29 07:17:55;;;;;;;5.77;3.30;;;20.50;74.00;;;;;;4993530;28;20289;-73
2021/07/29 07:20:20;;;;;;;5.40;3.37;;;20.40;74.30;;;;;;4993200;28;20273;-73
2021/07/29 07:22:46;;;;;;;6.60;3.80;;;20.50;73.50;;;;;;4993399;28;20924;-73
2021/07/29 07:25:12;;;;;;;9.23;3.70;;;20.50;73.60;;;;;;4992552;28;20183;-74
2021/07/29 07:27:38;;;;;;;8.40;4.20;;;20.70;73.60;;;;;;4993357;28;20289;-73
2021/07/29 07:30:05;;;;;;;5.90;3.03;;;20.70;72.60;;;;;;4993091;28;20183;-73
2021/07/29 07:32:30;;;;;;;5.50;3.90;;;20.70;72.90;;;;;;4993175;28;20440;-74
2021/07/29 07:34:56;;;;;;;5.07;3.33;;;20.80;72.10;;;;;;4992454;28;20537;-74
2021/07/29 07:37:22;;;;;;;8.13;4.23;;;20.90;72.30;;;;;;4991600;28;20875;-74
2021/07/29 07:39:48;;;;;;;5.30;3.20;;;20.90;71.70;;;;;;4990410;28;20215;-74
2021/07/29 07:42:15;;;;;;;7.17;3.90;;;21.00;70.70;;;;;;4987760;28;20288;-73
2021/07/29 07:44:40;;;;;;;7.13;3.53;;;21.10;69.80;;;;;;4985903;28;20418;-73
2021/07/29 07:47:06;;;;;;;6.33;3.60;;;21.20;69.10;;;;;;4993358;28;20468;-72
2021/07/29 07:49:33;;;;;;;6.10;3.67;;;21.30;68.00;;;;;;4993242;28;20214;-75
2021/07/29 07:52:00;;;;;;;6.10;3.53;;;21.40;66.70;;;;;;4993602;28;20423;-73
2021/07/29 07:54:26;;;;;;;8.33;4.03;;;21.60;66.30;;;;;;5010924;28;20496;-72
2021/07/29 07:56:51;;;;;;;7.30;4.37;;;21.70;66.60;;;;;;5002947;28;20501;-74
2021/07/29 07:59:17;;;;;;;11.00;4.00;;;21.70;66.40;;;;;;4987282;28;20578;-73
2021/07/29 08:01:44;;;;;;;7.53;4.03;;;21.70;67.00;;;;;;4990617;28;20556;-74
2021/07/29 08:04:10;;;;;;;5.17;3.73;;;21.70;66.30;;;;;;4983441;28;20184;-73
2021/07/29 08:06:36;;;;;;;4.90;3.80;;;21.60;66.60;;;;;;4990092;28;20432;-74
2021/07/29 08:09:03;;;;;;;10.40;4.33;;;21.70;67.30;;;;;;4989383;28;20180;-73
2021/07/29 08:11:30;;;;;;;7.73;3.80;;;21.80;66.90;;;;;;4989831;28;20470;-74
2021/07/29 08:13:56;;;;;;;6.53;3.60;;;21.80;65.70;;;;;;4986303;28;20871;-73
2021/07/29 08:16:22;;;;;;;5.70;3.73;;;21.90;66.40;;;;;;4985046;28;21293;-73
2021/07/29 08:18:47;;;;;;;6.00;3.50;;;21.90;66.70;;;;;;4984895;28;20424;-73
2021/07/29 08:21:13;;;;;;;6.00;4.17;;;22.00;66.70;;;;;;4992197;28;20191;-72
2021/07/29 08:23:40;;;;;;;7.13;3.60;;;22.20;67.00;;;;;;4989089;28;20725;-73
2021/07/29 08:26:07;;;;;;;6.90;3.80;;;22.30;65.60;;;;;;4983923;28;20387;-73
2021/07/29 08:28:35;;;;;;;8.37;4.00;;;22.30;66.10;;;;;;4987359;28;20906;-73
2021/07/29 08:31:01;;;;;;;6.57;3.83;;;22.30;64.80;;;;;;4989463;28;20438;-72
2021/07/29 08:33:26;;;;;;;4.90;3.40;;;22.10;65.40;;;;;;4985492;28;20499;-74
2021/07/29 08:35:52;;;;;;;8.43;3.97;;;22.00;65.70;;;;;;4987995;28;20925;-74
2021/07/29 08:38:18;;;;;;;11.80;4.20;;;21.90;65.10;;;;;;4988291;28;20695;-73
2021/07/29 08:40:44;;;;;;;7.10;3.83;;;21.90;65.80;;;;;;4991641;28;20189;-73
2021/07/29 08:43:10;;;;;;;5.70;3.63;;;22.00;66.30;;;;;;4991947;28;20207;-73
2021/07/29 08:45:44;;;;;;;6.67;4.20;;;22.20;66.10;;;;;;4989228;28;20272;-73
2021/07/29 08:48:10;;;;;;;6.17;3.90;;;22.40;65.10;;;;;;4988558;28;20438;-74
2021/07/29 08:50:36;;;;;;;5.90;3.67;;;22.50;64.40;;;;;;4986192;28;21096;-71
2021/07/29 08:53:02;;;;;;;7.20;4.10;;;22.70;63.20;;;;;;4987052;28;20452;-72
2021/07/29 08:55:28;;;;;;;7.00;4.57;;;22.70;63.40;;;;;;4984819;28;20468;-73
2021/07/29 08:57:54;;;;;;;7.93;4.33;;;22.60;61.60;;;;;;4984802;28;20594;-73
2021/07/29 09:00:20;;;;;;;7.80;4.13;;;22.60;61.50;;;;;;4985736;28;20276;-72
2021/07/29 09:02:45;;;;;;;9.43;4.90;;;22.60;61.90;;;;;;4988294;28;20433;-74
2021/07/29 09:05:21;;;;;;;7.53;4.20;;;22.70;62.30;;;;;;4983516;28;20192;-73
2021/07/29 09:08:04;;;;;;;6.47;4.10;;;22.80;62.20;;;;;;4986763;28;20263;-73
2021/07/29 09:10:30;;;;;;;8.70;4.20;;;22.80;60.30;;;;;;4980156;28;20427;-73
2021/07/29 09:13:07;;;;;;;10.60;4.70;;;22.70;60.60;;;;;;4983981;28;20425;-73
2021/07/29 09:15:33;;;;;;;9.33;3.90;;;22.80;60.70;;;;;;4980212;28;20434;-74
2021/07/29 09:17:59;;;;;;;6.40;4.27;;;22.90;60.40;;;;;;4982615;28;20436;-73
2021/07/29 09:20:25;;;;;;;10.00;4.07;;;23.20;60.30;;;;;;4986686;28;20784;-75
2021/07/29 09:22:52;;;;;;;6.30;4.20;;;23.50;59.10;;;;;;4989158;28;20637;-75
2021/07/29 09:25:22;;;;;;;7.80;4.50;;;23.50;58.70;;;;;;4982777;28;20702;-74
2021/07/29 09:27:49;;;;;;;5.87;3.70;;;23.50;59.20;;;;;;4988452;28;20452;-73
2021/07/29 09:30:27;;;;;;;7.33;3.83;;;23.50;57.70;;;;;;4989861;28;20509;-74
2021/07/29 09:33:15;;;;;;;7.80;4.10;;;23.50;58.00;;;;;;4988618;28;20484;-74
2021/07/29 09:35:50;;;;;;;6.37;4.03;;;23.40;57.60;;;;;;4988322;28;20456;-73
2021/07/29 09:38:31;;;;;;;6.23;3.80;;;23.30;58.00;;;;;;4990217;28;20451;-73
2021/07/29 09:40:59;;;;;;;9.67;3.93;;;23.10;58.10;;;;;;4990847;28;20425;-74
2021/07/29 09:43:33;;;;;;;7.27;4.17;;;23.00;58.70;;;;;;4992006;28;20786;-74
2021/07/29 09:46:13;;;;;;;7.73;4.47;;;22.90;59.30;;;;;;4991075;28;20488;-74
2021/07/29 09:48:39;;;;;;;6.50;3.77;;;23.00;59.60;;;;;;4991284;28;20451;-74
2021/07/29 09:51:04;;;;;;;8.07;4.13;;;23.20;59.20;;;;;;4979204;28;20430;-73
2021/07/29 09:53:34;;;;;;;8.77;4.43;;;23.20;57.70;;;;;;4987898;28;20245;-74
2021/07/29 09:56:00;;;;;;;6.00;3.63;;;23.00;57.00;;;;;;4986295;28;20183;-75
2021/07/29 09:58:26;;;;;;;7.70;4.53;;;22.70;58.20;;;;;;4984369;28;20460;-74
2021/07/29 10:00:52;;;;;;;6.40;3.90;;;22.70;58.80;;;;;;4985570;28;21378;-73
2021/07/29 10:03:22;;;;;;;7.13;4.20;;;22.80;58.40;;;;;;4986791;28;20782;-74
2021/07/29 10:05:53;;;;;;;6.43;3.90;;;23.00;58.50;;;;;;4982445;28;20539;-74
2021/07/29 10:08:29;;;;;;;7.37;3.90;;;23.30;56.60;;;;;;4986281;28;20447;-73
2021/07/29 10:10:55;;;;;;;7.10;4.43;;;23.40;56.50;;;;;;4988904;28;20415;-74
2021/07/29 10:13:41;;;;;;;6.47;4.40;;;23.40;57.00;;;;;;4983698;28;20463;-74
2021/07/29 10:16:18;;;;;;;7.63;3.73;;;23.30;56.50;;;;;;4985097;28;20434;-73
2021/07/29 10:19:04;;;;;;;7.30;4.40;;;23.20;56.40;;;;;;4988692;28;21026;-72
2021/07/29 10:21:31;;;;;;;5.77;4.30;;;23.30;56.10;;;;;;4981344;28;20426;-73
2021/07/29 10:23:59;;;;;;;6.80;3.80;;;23.60;56.40;;;;;;4985791;28;20431;-74
2021/07/29 10:26:26;;;;;;;5.33;4.10;;;23.70;55.20;;;;;;4986617;28;20427;-72
2021/07/29 10:28:51;;;;;;;6.57;4.17;;;23.70;55.70;;;;;;4988816;28;20439;-72
2021/07/29 10:31:19;;;;;;;6.83;4.70;;;24.00;54.60;;;;;;4988783;28;20468;-73
2021/07/29 10:33:48;;;;;;;8.60;4.60;;;24.00;54.40;;;;;;4982664;28;20205;-75
2021/07/29 10:36:40;;;;;;;4.60;3.40;;;24.10;54.10;;;;;;4984998;28;20540;-72
2021/07/29 10:39:06;;;;;;;7.47;4.50;;;24.00;53.60;;;;;;4986798;28;20430;-72
2021/07/29 10:41:35;;;;;;;7.77;4.57;;;24.20;53.00;;;;;;4994106;28;20418;-71
2021/07/29 10:44:05;;;;;;;6.40;4.27;;;24.50;53.40;;;;;;4984970;28;20203;-72
2021/07/29 10:46:54;;;;;;;6.80;4.57;;;25.00;52.60;;;;;;4980808;28;20429;-73
2021/07/29 10:49:20;;;;;;;5.40;4.10;;;25.00;51.20;;;;;;4988532;28;20445;-72
2021/07/29 10:52:04;;;;;;;7.30;4.60;;;24.80;50.90;;;;;;4985988;28;20495;-72
2021/07/29 10:54:30;;;;;;;8.53;5.33;;;24.50;52.10;;;;;;4980770;28;20205;-72
2021/07/29 10:56:57;;;;;;;6.90;4.43;;;24.80;52.80;;;;;;4993911;28;20464;-73
2021/07/29 10:59:23;;;;;;;6.90;4.27;;;25.00;51.20;;;;;;4990677;28;20935;-72
2021/07/29 11:01:49;;;;;;;8.67;4.80;;;24.60;51.70;;;;;;5011533;28;20455;-72
2021/07/29 11:04:15;;;;;;;9.93;4.83;;;24.10;53.00;;;;;;4995958;28;20959;-74
2021/07/29 11:06:44;;;;;;;7.50;4.63;;;23.90;54.20;;;;;;4988570;28;20524;-73
2021/07/29 11:09:18;;;;;;;8.57;4.87;;;24.10;54.10;;;;;;4991230;28;20185;-73
2021/07/29 11:11:45;;;;;;;7.10;4.47;;;24.30;53.20;;;;;;4989357;28;20431;-74
2021/07/29 11:14:12;;;;;;;8.60;4.30;;;24.30;52.50;;;;;;4991753;28;20475;-73
2021/07/29 11:16:38;;;;;;;7.23;4.70;;;24.50;51.60;;;;;;4984720;28;20490;-73
2021/07/29 11:19:06;;;;;;;6.17;4.50;;;24.80;51.00;;;;;;4985990;28;20422;-71
2021/07/29 11:21:33;;;;;;;7.03;4.80;;;25.00;49.70;;;;;;4986203;28;20517;-74
2021/07/29 11:23:59;;;;;;;6.10;4.37;;;25.20;49.80;;;;;;4989380;28;20450;-73
2021/07/29 11:26:25;;;;;;;7.77;4.73;;;25.50;49.40;;;;;;4983604;28;20419;-72
2021/07/29 11:29:08;;;;;;;6.40;4.50;;;25.50;49.10;;;;;;4986831;28;20439;-74
2021/07/29 11:31:39;;;;;;;6.70;4.60;;;25.70;49.50;;;;;;4981847;28;20497;-73
2021/07/29 11:34:06;;;;;;;7.53;4.07;;;25.90;49.00;;;;;;4986575;28;20474;-74
2021/07/29 11:36:33;;;;;;;8.40;4.80;;;25.80;49.70;;;;;;4988524;28;21068;-73
2021/07/29 11:39:04;;;;;;;7.63;4.90;;;25.50;49.80;;;;;;4991809;28;20435;-73
2021/07/29 11:41:48;;;;;;;5.37;3.80;;;25.60;50.50;;;;;;4992666;28;20999;-73
2021/07/29 11:44:14;;;;;;;6.10;4.40;;;25.40;48.50;;;;;;4992343;28;20459;-73
2021/07/29 11:46:55;;;;;;;9.43;4.07;;;25.20;50.10;;;;;;4992972;28;20532;-74
2021/07/29 11:49:21;;;;;;;7.20;4.63;;;25.20;50.30;;;;;;4991685;28;20666;-74
2021/07/29 11:52:10;;;;;;;6.40;4.53;;;25.40;49.70;;;;;;4992103;28;20439;-72
2021/07/29 11:54:39;;;;;;;8.03;4.93;;;25.20;50.50;;;;;;4979965;28;20830;-73
2021/07/29 11:57:05;;;;;;;6.70;5.00;;;25.60;49.90;;;;;;4987130;28;20540;-72
2021/07/29 11:59:39;;;;;;;8.40;5.00;;;25.90;49.90;;;;;;4986089;28;20573;-74
2021/07/29 12:02:05;;;;;;;16.93;5.30;;;26.20;48.70;;;;;;4986270;28;20750;-74
2021/07/29 12:04:40;;;;;;;7.27;4.77;;;26.40;49.10;;;;;;4984279;28;20754;-74
2021/07/29 12:07:08;;;;;;;7.77;5.00;;;26.00;49.40;;;;;;4984062;28;20856;-73
2021/07/29 12:09:35;;;;;;;7.03;4.07;;;26.00;49.40;;;;;;4991879;28;20453;-73
2021/07/29 12:12:01;;;;;;;7.33;4.80;;;25.60;48.70;;;;;;4981603;28;20428;-73
2021/07/29 12:14:28;;;;;;;8.07;4.63;;;25.10;50.90;;;;;;4992059;28;20493;-72
2021/07/29 12:16:55;;;;;;;7.80;4.40;;;25.30;51.00;;;;;;4987874;28;20437;-73
2021/07/29 12:19:22;;;;;;;6.87;4.57;;;25.40;50.20;;;;;;4992075;28;20432;-73
2021/07/29 12:21:48;;;;;;;7.30;4.27;;;25.00;50.70;;;;;;4991988;28;20427;-72
2021/07/29 12:24:15;;;;;;;8.40;4.50;;;24.90;51.40;;;;;;4991427;28;20418;-73
2021/07/29 12:26:41;;;;;;;7.37;4.60;;;25.30;49.90;;;;;;4991885;28;20422;-73
2021/07/29 12:29:09;;;;;;;6.90;4.70;;;25.60;50.30;;;;;;4991971;28;20905;-73
2021/07/29 12:31:43;;;;;;;9.57;4.50;;;25.80;49.10;;;;;;4990558;28;20835;-73
2021/07/29 12:34:08;;;;;;;7.60;4.97;;;25.90;48.60;;;;;;4984332;28;20860;-72
2021/07/29 12:36:48;;;;;;;9.67;5.10;;;26.40;48.90;;;;;;4991733;28;20516;-73
2021/07/29 12:39:17;;;;;;;6.80;4.30;;;27.10;46.70;;;;;;4991448;28;20284;-73
2021/07/29 12:41:46;;;;;;;7.70;4.37;;;27.20;45.90;;;;;;4991239;28;20431;-75
2021/07/29 12:44:19;;;;;;;8.57;5.23;;;27.10;45.90;;;;;;4990885;28;20449;-73
2021/07/29 12:46:46;;;;;;;7.70;4.60;;;27.30;46.60;;;;;;4991760;28;20455;-74
2021/07/29 12:49:14;;;;;;;9.00;4.33;;;27.90;45.00;;;;;;4991379;28;20435;-74
2021/07/29 12:51:48;;;;;;;8.20;4.70;;;28.00;44.90;;;;;;4984266;28;20427;-74